Time;durP1;ratioP1;P1;durP2;ratioP2;P2;SDS_P1;SDS_P2;PMS_P1;PMS_P2;Temp;Humidity;BMP_temperature;BMP_pressure;BME280_temperature;BME280_humidity;BME280_pressure;Samples;Min_cycle;Max_cycle;Signal;HPM_P1;HPM_P2
2023/04/12 00:01:18;;;;;;;4.63;0.60;;;14.90;99.90;;;15.03;49.15;100380.94;6049644;22;105075;-46
2023/04/12 00:03:49;;;;;;;1.30;0.53;;;14.90;99.90;;;15.06;48.66;100372.81;6054420;22;98465;-44
2023/04/12 00:06:26;;;;;;;1.70;0.70;;;14.90;99.90;;;15.07;50.05;100368.34;6048782;22;97254;-45
2023/04/12 00:08:53;;;;;;;0.57;0.40;;;14.90;99.90;;;15.12;47.91;100361.81;6049332;22;97801;-47
2023/04/12 00:11:18;;;;;;;1.63;0.37;;;14.90;99.90;;;15.21;47.57;100362.22;6059072;22;97162;-48
2023/04/12 00:13:44;;;;;;;0.50;0.30;;;15.10;99.90;;;15.32;47.56;100360.59;6074366;23;98059;-49
2023/04/12 00:16:14;;;;;;;1.40;0.63;;;15.20;99.90;;;15.41;48.70;100340.59;6070425;22;97639;-50
2023/04/12 00:18:41;;;;;;;0.43;0.27;;;15.40;99.90;;;15.51;46.48;100331.13;6074588;22;97348;-49
2023/04/12 00:21:09;;;;;;;1.23;0.50;;;15.50;99.90;;;15.64;46.61;100332.13;6078586;22;97123;-46
2023/04/12 00:23:36;;;;;;;1.13;0.47;;;15.60;99.90;;;15.71;46.68;100333.44;6073094;22;97294;-45
2023/04/12 00:26:03;;;;;;;1.87;0.40;;;15.80;99.90;;;15.76;46.24;100331.34;6070227;22;97963;-47
2023/04/12 00:28:29;;;;;;;0.67;0.50;;;15.80;99.90;;;15.81;47.01;100327.56;6071451;22;106210;-47
2023/04/12 00:30:55;;;;;;;0.43;0.40;;;15.80;99.90;;;15.84;46.26;100316.72;6075093;22;98581;-46
2023/04/12 00:33:20;;;;;;;0.47;0.37;;;15.80;99.90;;;15.90;45.68;100300.38;6065071;22;117812;-47
2023/04/12 00:35:46;;;;;;;0.33;0.20;;;15.90;99.90;;;15.95;45.68;100292.97;6070524;22;111009;-46
2023/04/12 00:38:14;;;;;;;0.40;0.30;;;16.10;99.90;;;16.01;45.48;100289.91;6091594;22;97465;-47
2023/04/12 00:40:41;;;;;;;0.93;0.33;;;16.10;99.90;;;16.04;45.43;100281.72;6072657;22;97906;-47
2023/04/12 00:43:09;;;;;;;0.40;0.20;;;16.10;99.90;;;16.08;45.56;100283.25;6069030;22;98213;-49
2023/04/12 00:45:36;;;;;;;0.47;0.20;;;16.20;99.90;;;16.05;45.74;100275.44;6071609;22;97352;-48
2023/04/12 00:48:04;;;;;;;1.83;0.50;;;16.10;99.90;;;16.04;45.58;100266.63;6068495;22;97213;-46
2023/04/12 00:50:30;;;;;;;0.40;0.40;;;16.00;99.90;;;16.02;46.48;100251.72;6070937;22;97541;-47
2023/04/12 00:52:57;;;;;;;0.53;0.40;;;16.00;99.90;;;16.01;45.62;100258.84;6072651;22;100439;-47
2023/04/12 00:55:23;;;;;;;0.63;0.33;;;16.00;99.90;;;15.91;47.10;100251.53;6066434;22;97378;-49
2023/04/12 00:57:50;;;;;;;0.77;0.33;;;15.90;99.90;;;15.77;47.35;100250.66;6071469;23;115402;-48
2023/04/12 01:00:16;;;;;;;1.03;0.50;;;15.70;99.90;;;15.72;47.10;100250.06;6069852;22;97960;-45
2023/04/12 01:02:45;;;;;;;1.50;0.40;;;15.60;99.90;;;15.76;46.57;100240.94;6068428;23;97868;-46
2023/04/12 01:05:13;;;;;;;1.80;0.50;;;15.70;99.90;;;15.79;46.54;100239.06;6070718;22;96980;-47
2023/04/12 01:07:46;;;;;;;0.53;0.20;;;15.70;99.90;;;15.81;46.21;100229.16;6066746;23;97936;-48
2023/04/12 01:10:53;;;;;;;1.63;0.40;;;15.80;99.90;;;15.78;48.41;100227.56;6067413;23;97191;-46
2023/04/12 01:13:47;;;;;;;1.40;0.63;;;15.80;99.90;;;15.82;46.13;100225.56;6068310;22;98858;-47
2023/04/12 01:16:35;;;;;;;0.77;0.37;;;15.80;99.90;;;15.86;46.37;100219.94;6067981;22;97826;-47
2023/04/12 01:19:08;;;;;;;0.27;0.17;;;15.90;99.90;;;15.89;46.02;100205.56;6068429;23;97255;-49
2023/04/12 01:22:10;;;;;;;0.50;0.33;;;15.90;99.90;;;15.99;45.89;100206.69;6071613;23;97408;-46
2023/04/12 01:24:57;;;;;;;0.80;0.37;;;16.00;99.90;;;16.01;45.99;100200.31;6071355;22;101567;-44
2023/04/12 01:27:44;;;;;;;2.03;0.63;;;16.10;99.90;;;16.05;45.85;100201.81;6069390;22;97682;-50
2023/04/12 01:30:13;;;;;;;0.40;0.40;;;16.10;99.90;;;16.09;45.91;100188.34;6069123;22;97635;-48
2023/04/12 01:32:41;;;;;;;1.43;0.40;;;16.20;99.90;;;16.09;45.82;100183.88;6069449;23;99756;-47
2023/04/12 01:35:09;;;;;;;0.50;0.30;;;16.20;99.90;;;16.14;45.81;100180.91;6066652;23;97471;-47
2023/04/12 01:37:35;;;;;;;0.50;0.17;;;16.30;99.90;;;16.18;45.62;100175.25;6069248;23;97711;-46
2023/04/12 01:40:04;;;;;;;2.10;0.40;;;16.30;99.90;;;16.18;45.86;100166.44;6066937;22;108186;-45
2023/04/12 01:42:31;;;;;;;0.57;0.27;;;16.30;99.90;;;16.17;46.13;100165.56;6072970;22;97741;-48
2023/04/12 01:44:57;;;;;;;1.13;0.40;;;16.30;99.90;;;16.10;46.47;100166.94;6073135;22;97567;-49
2023/04/12 01:47:24;;;;;;;1.87;0.40;;;16.10;99.90;;;15.88;48.84;100158.66;6069205;22;99143;-51
2023/04/12 01:50:20;;;;;;;0.20;0.20;;;15.80;99.90;;;15.84;46.71;100141.22;6074101;22;96720;-48
2023/04/12 01:52:59;;;;;;;0.60;0.30;;;15.70;99.90;;;15.84;46.52;100125.25;6071765;22;97374;-48
2023/04/12 01:55:29;;;;;;;2.07;0.20;;;15.80;99.90;;;15.88;46.53;100124.09;6069494;22;102314;-47
2023/04/12 01:57:56;;;;;;;0.20;0.10;;;15.90;99.90;;;15.95;46.25;100117.44;6073084;23;98002;-48
2023/04/12 02:00:24;;;;;;;0.60;0.40;;;16.00;99.90;;;16.01;47.47;100117.00;6068639;22;96942;-46
2023/04/12 02:02:50;;;;;;;1.47;0.40;;;16.10;99.90;;;16.01;46.12;100112.53;6070330;23;111173;-44
2023/04/12 02:05:16;;;;;;;1.33;0.47;;;16.10;99.90;;;16.04;47.33;100106.16;6066943;22;123278;-47
2023/04/12 02:07:43;;;;;;;0.60;0.30;;;16.10;99.90;;;16.08;46.26;100097.03;6071187;22;97799;-49
2023/04/12 02:10:14;;;;;;;1.77;0.40;;;16.10;99.90;;;16.02;46.43;100086.78;6068837;22;99548;-46
2023/04/12 02:12:40;;;;;;;0.63;0.30;;;16.10;99.90;;;16.03;46.23;100076.03;6073411;22;97247;-45
2023/04/12 02:15:07;;;;;;;0.60;0.40;;;16.10;99.90;;;16.04;46.14;100071.56;6072029;22;98504;-47
2023/04/12 02:17:36;;;;;;;0.63;0.30;;;16.20;99.90;;;16.12;46.13;100060.44;6082737;22;97112;-47
2023/04/12 02:20:08;;;;;;;0.47;0.20;;;16.20;99.90;;;16.12;46.27;100061.28;6080378;22;97040;-49
2023/04/12 02:22:34;;;;;;;2.73;0.20;;;16.20;99.90;;;16.07;45.97;100052.78;6083511;22;104295;-49
2023/04/12 02:25:00;;;;;;;1.43;0.27;;;16.20;99.90;;;16.10;46.30;100052.56;6079083;22;97539;-46
2023/04/12 02:27:26;;;;;;;0.37;0.13;;;16.30;99.90;;;16.12;46.09;100066.59;6084571;22;119673;-46
2023/04/12 02:29:51;;;;;;;0.30;0.30;;;16.20;99.90;;;16.16;46.17;100057.44;6080778;22;97291;-45
2023/04/12 02:32:17;;;;;;;0.30;0.30;;;16.30;99.90;;;16.14;46.45;100047.88;6076085;22;108894;-46
2023/04/12 02:34:43;;;;;;;0.30;0.30;;;16.20;99.90;;;16.10;46.24;100049.91;6081119;22;119842;-47
2023/04/12 02:37:12;;;;;;;0.83;0.37;;;16.10;99.90;;;16.08;46.27;100038.50;6069720;22;97378;-45
2023/04/12 02:39:39;;;;;;;0.43;0.23;;;16.10;99.90;;;16.01;46.44;100021.25;6073166;22;98092;-45
2023/04/12 02:42:06;;;;;;;0.20;0.20;;;16.10;99.90;;;16.05;46.59;100025.41;6070769;22;98281;-46
2023/04/12 02:44:32;;;;;;;0.43;0.20;;;16.10;99.90;;;16.05;46.63;100025.41;6072587;22;110557;-47
2023/04/12 02:46:58;;;;;;;0.90;0.47;;;16.20;99.90;;;16.06;46.84;100024.47;6074535;22;123179;-46
2023/04/12 02:49:23;;;;;;;0.17;0.10;;;16.20;99.90;;;16.00;46.58;100014.22;6068864;22;97419;-46
2023/04/12 02:51:49;;;;;;;0.13;0.13;;;16.10;99.90;;;16.02;46.57;99991.03;6069272;22;101951;-48
2023/04/12 02:54:15;;;;;;;0.37;0.20;;;16.20;99.90;;;16.05;46.33;99980.16;6071789;22;97244;-48
2023/04/12 02:56:42;;;;;;;0.30;0.30;;;16.20;99.90;;;16.07;46.43;99967.66;6072080;22;97263;-48
2023/04/12 02:59:08;;;;;;;1.03;0.20;;;16.20;99.90;;;16.03;46.55;99959.00;6067309;22;97354;-48
2023/04/12 03:01:34;;;;;;;2.13;0.37;;;16.20;99.90;;;16.02;46.50;99959.09;6073846;23;116683;-47
2023/04/12 03:04:00;;;;;;;0.63;0.17;;;16.20;99.90;;;16.05;46.49;99954.41;6069902;22;97606;-47
2023/04/12 03:06:26;;;;;;;0.67;0.17;;;16.20;99.90;;;16.09;46.38;99949.75;6071173;22;97518;-47
2023/04/12 03:08:52;;;;;;;0.20;0.20;;;16.30;99.90;;;16.16;46.29;99950.16;6072973;23;112690;-46
2023/04/12 03:11:18;;;;;;;2.33;0.40;;;16.30;99.90;;;16.12;46.44;99935.41;6069553;22;97620;-45
2023/04/12 03:13:43;;;;;;;2.40;0.30;;;16.30;99.90;;;16.15;46.44;99937.84;6072380;22;108976;-49
2023/04/12 03:16:28;;;;;;;0.20;0.20;;;16.30;99.90;;;16.11;46.50;99925.72;6068093;22;120482;-47
2023/04/12 03:18:55;;;;;;;0.30;0.30;;;16.30;99.90;;;16.15;46.22;99928.03;6071629;22;97445;-48
2023/04/12 03:21:21;;;;;;;0.40;0.33;;;16.30;99.90;;;16.16;46.31;99910.25;6069254;22;97690;-48
2023/04/12 03:23:47;;;;;;;0.20;0.13;;;16.30;99.90;;;16.13;46.58;99908.69;6071481;22;110411;-50
2023/04/12 03:26:13;;;;;;;0.40;0.20;;;16.30;99.90;;;16.12;46.74;99896.34;6067830;22;123545;-45
2023/04/12 03:28:40;;;;;;;0.80;0.47;;;16.30;99.90;;;16.09;46.56;99880.59;6073335;22;97330;-48
2023/04/12 03:31:06;;;;;;;0.40;0.20;;;16.20;99.90;;;16.06;46.97;99881.69;6066255;22;97505;-47
2023/04/12 03:33:32;;;;;;;1.33;0.50;;;16.20;99.90;;;16.05;47.04;99871.13;6075519;22;98200;-48
2023/04/12 03:35:58;;;;;;;0.70;0.40;;;16.20;99.90;;;15.98;46.92;99867.19;6074906;22;97903;-45
2023/04/12 03:38:23;;;;;;;0.30;0.10;;;16.10;99.90;;;15.98;47.19;99867.19;6066934;22;106831;-47
2023/04/12 03:40:49;;;;;;;0.20;0.10;;;16.10;99.90;;;16.01;46.73;99851.88;6070619;22;97279;-47
2023/04/12 03:43:15;;;;;;;0.73;0.40;;;16.10;99.90;;;16.00;46.92;99849.31;6068837;22;118698;-46
2023/04/12 03:45:42;;;;;;;0.43;0.30;;;16.10;99.90;;;15.90;47.42;99837.63;6070141;22;113791;-44
2023/04/12 03:48:09;;;;;;;0.50;0.17;;;16.00;99.90;;;15.90;47.06;99838.47;6069319;22;97619;-48
2023/04/12 03:50:42;;;;;;;0.53;0.13;;;16.00;99.90;;;15.91;47.31;99823.38;6070469;22;97333;-45
2023/04/12 03:53:12;;;;;;;0.10;0.10;;;16.10;99.90;;;16.00;47.02;99825.38;6066949;22;97013;-46
2023/04/12 03:55:38;;;;;;;0.30;0.30;;;16.20;99.90;;;15.97;47.38;99817.63;6072842;22;97360;-47
2023/04/12 03:58:04;;;;;;;1.93;0.40;;;16.20;99.90;;;15.99;47.24;99810.38;6065899;22;96940;-46
2023/04/12 04:00:30;;;;;;;1.90;0.30;;;16.20;99.90;;;16.02;46.95;99799.53;6070669;22;97350;-45
2023/04/12 04:03:02;;;;;;;1.37;0.33;;;16.20;99.90;;;16.00;47.23;99790.81;6075562;22;98334;-46
2023/04/12 04:05:29;;;;;;;0.87;0.30;;;16.20;99.90;;;16.01;47.05;99787.19;6066834;23;100719;-46
2023/04/12 04:07:59;;;;;;;0.47;0.30;;;16.20;99.90;;;16.06;47.14;99795.69;6067905;23;96921;-46
2023/04/12 04:10:26;;;;;;;1.50;0.30;;;16.20;99.90;;;16.06;46.93;99785.06;6068359;22;97858;-47
2023/04/12 04:12:53;;;;;;;2.03;0.50;;;16.20;99.90;;;16.06;46.98;99769.94;6070213;23;97711;-47
2023/04/12 04:15:19;;;;;;;1.40;0.20;;;16.30;99.90;;;16.08;47.06;99767.19;6070310;22;97577;-47
2023/04/12 04:17:47;;;;;;;1.87;0.50;;;16.20;99.90;;;16.05;47.17;99754.06;6073924;22;97630;-45
2023/04/12 04:20:13;;;;;;;1.07;0.30;;;16.20;99.90;;;16.06;47.07;99766.44;6067287;22;97071;-46
2023/04/12 04:22:41;;;;;;;0.47;0.10;;;16.20;99.90;;;16.09;46.90;99758.22;6071793;22;97241;-48
2023/04/12 04:25:07;;;;;;;3.03;0.40;;;16.20;99.90;;;16.08;46.76;99745.91;6067987;22;96758;-46
2023/04/12 04:27:37;;;;;;;2.20;0.40;;;16.20;99.90;;;16.09;46.86;99730.78;6072124;22;97773;-47
2023/04/12 04:30:04;;;;;;;2.60;0.40;;;16.30;99.90;;;16.03;47.48;99734.72;6077645;22;96618;-47
2023/04/12 04:32:32;;;;;;;0.10;0.10;;;16.20;99.90;;;16.03;47.19;99732.06;6083620;22;97364;-47
2023/04/12 04:34:58;;;;;;;2.03;0.40;;;16.20;99.90;;;16.01;46.96;99729.53;6083210;22;98048;-47
2023/04/12 04:37:26;;;;;;;0.93;0.40;;;16.20;99.90;;;15.98;47.45;99720.91;6090179;22;97165;-44
2023/04/12 04:39:52;;;;;;;0.47;0.20;;;16.10;99.90;;;15.92;47.34;99724.03;6092907;23;97110;-46
2023/04/12 04:42:18;;;;;;;0.20;0.20;;;16.10;99.90;;;15.96;47.46;99714.88;6080112;22;98908;-49
2023/04/12 04:45:01;;;;;;;0.40;0.20;;;16.10;99.90;;;15.80;47.57;99714.28;6084484;22;97971;-44
2023/04/12 04:47:29;;;;;;;0.13;0.13;;;15.90;99.90;;;15.88;47.61;99717.22;6077233;22;97604;-47
2023/04/12 04:49:58;;;;;;;0.60;0.20;;;16.00;99.90;;;15.75;47.99;99718.09;6080490;22;97673;-44
2023/04/12 04:52:24;;;;;;;0.30;0.10;;;15.90;99.90;;;15.72;48.02;99717.47;6077311;23;97409;-47
2023/04/12 04:54:50;;;;;;;0.13;0.13;;;15.70;99.90;;;15.53;48.39;99715.25;6077040;22;97571;-47
2023/04/12 04:57:16;;;;;;;0.57;0.40;;;15.50;99.90;;;15.49;48.97;99708.47;6070073;22;97394;-45
2023/04/12 04:59:42;;;;;;;0.43;0.30;;;15.50;99.90;;;15.46;48.77;99700.69;6073939;22;103616;-47
2023/04/12 05:02:09;;;;;;;0.10;0.10;;;15.50;99.90;;;15.52;48.37;99705.59;6067784;22;97534;-46
2023/04/12 05:04:35;;;;;;;1.70;0.50;;;15.70;99.90;;;15.62;48.51;99704.00;6072137;22;97150;-46
2023/04/12 05:07:02;;;;;;;0.30;0.20;;;15.80;99.90;;;15.40;49.09;99711.75;6070078;22;97431;-46
2023/04/12 05:09:27;;;;;;;1.10;0.57;;;15.50;99.90;;;15.48;48.72;99694.34;6068939;23;116522;-46
2023/04/12 05:11:53;;;;;;;1.07;0.60;;;15.60;99.90;;;15.58;48.52;99694.50;6071489;22;105862;-46
2023/04/12 05:14:19;;;;;;;0.20;0.13;;;15.70;99.90;;;15.62;48.41;99695.16;6068711;22;97618;-50
2023/04/12 05:16:45;;;;;;;0.33;0.20;;;15.80;99.90;;;15.61;48.42;99689.00;6073099;22;97743;-45
2023/04/12 05:19:10;;;;;;;4.53;0.20;;;15.80;99.90;;;15.68;48.47;99678.78;6070192;22;97786;-47
2023/04/12 05:21:36;;;;;;;0.83;0.47;;;15.80;99.90;;;15.72;47.92;99670.47;6070297;22;125880;-47
2023/04/12 05:24:02;;;;;;;0.30;0.20;;;15.90;99.90;;;15.77;47.98;99667.50;6071036;22;98273;-45
2023/04/12 05:26:28;;;;;;;0.30;0.30;;;16.00;99.90;;;15.83;48.10;99660.88;6076544;22;97310;-47
2023/04/12 05:28:54;;;;;;;0.40;0.20;;;16.00;99.90;;;15.86;48.03;99665.97;6071835;22;106011;-49
2023/04/12 05:31:19;;;;;;;0.43;0.23;;;16.00;99.90;;;15.83;48.04;99652.91;6069292;22;123275;-44
2023/04/12 05:33:45;;;;;;;1.17;0.30;;;16.00;99.90;;;15.89;47.90;99655.94;6071645;22;97559;-46
2023/04/12 05:36:11;;;;;;;1.13;0.20;;;16.10;99.90;;;15.94;47.79;99650.31;6069287;22;97107;-48
2023/04/12 05:38:37;;;;;;;0.20;0.20;;;16.20;99.90;;;16.03;47.63;99636.31;6073208;22;98617;-46
2023/04/12 05:41:05;;;;;;;1.23;0.40;;;16.20;99.90;;;16.06;47.85;99642.28;6067798;22;115798;-45
2023/04/12 05:43:31;;;;;;;3.30;0.30;;;16.20;99.90;;;16.05;47.69;99634.38;6073091;22;97743;-45
2023/04/12 05:45:58;;;;;;;3.50;0.40;;;16.30;99.90;;;16.11;47.45;99633.94;6074215;22;97285;-47
2023/04/12 05:48:24;;;;;;;1.17;0.30;;;16.30;99.90;;;16.11;47.21;99630.44;6066899;23;97361;-46
2023/04/12 05:50:53;;;;;;;0.33;0.30;;;16.30;99.90;;;16.04;47.32;99632.69;6073983;22;97895;-44
2023/04/12 05:53:21;;;;;;;0.73;0.53;;;16.30;99.90;;;16.13;48.27;99625.84;6071607;22;97527;-47
2023/04/12 05:55:46;;;;;;;0.40;0.40;;;16.30;99.90;;;16.14;47.49;99620.41;6070717;22;97291;-49
2023/04/12 05:58:12;;;;;;;0.30;0.20;;;16.30;99.90;;;16.19;47.21;99626.22;6072554;22;105494;-47
2023/04/12 06:00:40;;;;;;;0.30;0.20;;;16.30;99.90;;;16.14;47.38;99628.38;6072484;22;97491;-45
2023/04/12 06:03:10;;;;;;;0.50;0.33;;;16.40;99.90;;;16.08;47.93;99620.03;6068415;22;97327;-49
2023/04/12 06:05:37;;;;;;;0.33;0.20;;;16.20;99.90;;;16.04;47.91;99622.91;6075544;22;97606;-47
2023/04/12 06:08:04;;;;;;;1.23;0.30;;;16.10;99.90;;;16.02;47.70;99610.69;6065547;22;97734;-47
2023/04/12 06:10:30;;;;;;;0.23;0.23;;;16.20;99.90;;;16.08;47.46;99610.25;6063720;22;97404;-47
2023/04/12 06:12:56;;;;;;;0.20;0.20;;;16.20;99.90;;;16.06;47.97;99605.03;6064080;23;97436;-48
2023/04/12 06:15:22;;;;;;;0.17;0.17;;;16.30;99.90;;;16.13;47.65;99605.41;6060841;22;109098;-45
2023/04/12 06:17:50;;;;;;;0.20;0.13;;;16.30;99.90;;;16.11;47.52;99601.19;6063656;22;113710;-46
2023/04/12 06:20:16;;;;;;;0.73;0.40;;;16.30;99.90;;;16.08;48.02;99607.56;6062371;22;97485;-45
2023/04/12 06:22:41;;;;;;;0.40;0.27;;;16.20;99.90;;;16.06;48.26;99588.22;6064653;22;97565;-49
2023/04/12 06:25:07;;;;;;;0.10;0.10;;;16.20;99.90;;;16.06;47.53;99593.56;6059593;22;110437;-49
2023/04/12 06:27:33;;;;;;;0.30;0.30;;;16.20;99.90;;;16.10;47.56;99586.19;6063374;22;97777;-47
2023/04/12 06:29:59;;;;;;;0.20;0.20;;;16.30;99.90;;;16.07;47.70;99573.97;6044328;22;103646;-46
2023/04/12 06:32:25;;;;;;;0.30;0.20;;;16.20;99.90;;;16.02;48.03;99581.41;6058210;22;115624;-45
2023/04/12 06:34:51;;;;;;;0.20;0.20;;;16.10;99.90;;;16.08;47.73;99580.13;6063781;22;97547;-45
2023/04/12 06:37:16;;;;;;;1.47;0.40;;;16.20;99.90;;;15.97;47.76;99567.63;6054293;22;97603;-50
2023/04/12 06:39:42;;;;;;;0.20;0.10;;;16.10;99.90;;;15.97;47.99;99567.63;6057634;22;111267;-47
2023/04/12 06:42:08;;;;;;;0.63;0.20;;;16.10;99.90;;;15.97;48.59;99562.31;6055327;22;98867;-45
2023/04/12 06:44:34;;;;;;;0.50;0.20;;;16.10;99.90;;;15.88;48.56;99558.53;6061827;23;102093;-48
2023/04/12 06:46:59;;;;;;;0.43;0.20;;;16.00;99.90;;;15.88;48.43;99558.53;6060626;22;97090;-47
2023/04/12 06:49:25;;;;;;;0.27;0.13;;;16.00;99.90;;;15.94;48.30;99557.22;6057080;22;100231;-45
2023/04/12 06:51:51;;;;;;;0.17;0.17;;;16.10;99.90;;;15.90;48.60;99553.09;6087892;22;98309;-51
2023/04/12 06:54:16;;;;;;;1.23;0.30;;;16.10;99.90;;;15.90;48.53;99534.47;6120286;22;101886;-48
2023/04/12 06:56:42;;;;;;;0.20;0.20;;;16.00;99.90;;;15.87;48.42;99535.56;6123292;22;103269;-47
2023/04/12 06:59:08;;;;;;;0.87;0.20;;;16.10;99.90;;;15.97;48.89;99527.75;6119364;22;118046;-51
2023/04/12 07:01:34;;;;;;;0.87;0.50;;;16.10;99.90;;;15.91;48.96;99509.56;6125665;22;98679;-53
2023/04/12 07:04:00;;;;;;;2.00;0.20;;;16.00;99.90;;;15.88;48.40;99504.50;6089655;22;97460;-51
2023/04/12 07:06:27;;;;;;;0.20;0.20;;;16.00;99.90;;;15.89;48.33;99506.19;6121061;22;106079;-49
2023/04/12 07:08:52;;;;;;;0.20;0.20;;;16.10;99.90;;;15.83;48.64;99506.66;6121558;22;97932;-48
2023/04/12 07:11:21;;;;;;;0.43;0.20;;;15.90;99.90;;;15.74;48.85;99503.72;6122526;22;97213;-52
2023/04/12 07:13:47;;;;;;;0.20;0.20;;;15.90;99.90;;;15.67;50.88;99507.81;6124052;22;98092;-46
2023/04/12 07:16:13;;;;;;;1.50;0.53;;;15.80;99.90;;;15.71;49.22;99495.97;6125965;22;97232;-50
2023/04/12 07:18:39;;;;;;;0.77;0.40;;;15.80;99.90;;;15.73;48.82;99491.38;6126887;22;97578;-48
2023/04/12 07:21:05;;;;;;;0.23;0.20;;;15.90;99.90;;;15.79;50.80;99489.25;6078779;22;99352;-49
2023/04/12 07:23:31;;;;;;;0.20;0.20;;;15.90;99.90;;;15.70;49.24;99482.81;6100162;22;97671;-49
2023/04/12 07:26:00;;;;;;;2.00;0.30;;;15.80;99.90;;;15.77;49.70;99484.91;6101493;22;97238;-48
2023/04/12 07:28:26;;;;;;;0.33;0.30;;;15.80;99.90;;;15.60;52.47;99479.97;6094973;22;101852;-50
2023/04/12 07:30:52;;;;;;;0.57;0.17;;;15.70;99.90;;;15.54;50.00;99475.09;6098471;22;97267;-49
2023/04/12 07:33:18;;;;;;;0.47;0.30;;;15.60;99.90;;;15.56;49.89;99478.50;6098145;22;98641;-51
2023/04/12 07:35:44;;;;;;;0.60;0.40;;;15.60;99.90;;;15.56;49.87;99467.00;6072018;22;97702;-51
2023/04/12 07:38:09;;;;;;;0.10;0.10;;;15.60;99.90;;;15.64;49.60;99462.88;6093226;22;100172;-50
2023/04/12 07:40:35;;;;;;;0.40;0.20;;;15.70;99.90;;;15.64;50.70;99454.88;6096967;22;111491;-45
2023/04/12 07:43:01;;;;;;;0.07;0.03;;;15.80;99.90;;;15.70;49.18;99454.41;6096943;22;97480;-51
2023/04/12 07:45:27;;;;;;;0.20;0.10;;;15.90;99.90;;;15.80;48.92;99448.41;6075669;22;100742;-47
2023/04/12 07:47:53;;;;;;;0.10;0.10;;;16.00;99.90;;;15.90;48.56;99452.88;6098209;22;97833;-50
2023/04/12 07:50:19;;;;;;;0.53;0.30;;;16.10;99.90;;;15.81;51.44;99445.63;6103456;22;97720;-48
2023/04/12 07:52:44;;;;;;;0.23;0.20;;;16.00;99.90;;;15.79;49.28;99438.75;6117325;22;114297;-46
2023/04/12 07:55:10;;;;;;;0.00;0.00;;;15.90;99.90;;;15.80;49.44;99432.47;6120152;22;97235;-47
2023/04/12 07:57:36;;;;;;;0.10;0.10;;;15.90;99.90;;;15.83;49.16;99432.22;6097911;22;118197;-49
2023/04/12 08:00:04;;;;;;;0.23;0.10;;;16.00;99.90;;;15.80;49.08;99433.31;6116597;22;121206;-48
2023/04/12 08:02:30;;;;;;;0.27;0.10;;;15.90;99.90;;;15.89;48.94;99445.03;6123518;22;102203;-46
2023/04/12 08:04:56;;;;;;;0.63;0.30;;;16.00;99.90;;;15.93;49.53;99442.03;6125637;22;97353;-47
2023/04/12 08:07:22;;;;;;;0.33;0.20;;;16.00;99.90;;;15.90;49.23;99446.72;6116983;22;114478;-51
2023/04/12 08:09:49;;;;;;;0.30;0.23;;;16.00;99.90;;;15.89;49.08;99445.03;6124236;22;97917;-49
2023/04/12 08:12:15;;;;;;;0.10;0.07;;;16.00;99.90;;;15.99;49.39;99449.53;6120569;22;98476;-47
2023/04/12 08:14:41;;;;;;;0.10;0.10;;;16.10;99.90;;;15.93;49.25;99442.03;6127666;22;97653;-49
2023/04/12 08:17:07;;;;;;;0.47;0.20;;;16.00;99.90;;;15.93;50.05;99439.38;6124993;22;97889;-50
2023/04/12 08:19:34;;;;;;;0.17;0.10;;;16.00;99.90;;;15.92;49.99;99432.38;6127402;22;115685;-48
2023/04/12 08:22:00;;;;;;;0.10;0.10;;;16.00;99.90;;;15.84;52.57;99439.22;6105098;22;97619;-48
2023/04/12 08:24:26;;;;;;;0.10;0.10;;;15.80;99.90;;;15.79;52.27;99436.09;6129383;22;97952;-46
2023/04/12 08:26:52;;;;;;;0.40;0.30;;;15.70;99.90;;;15.71;50.47;99436.66;6127597;22;97815;-46
2023/04/12 08:29:17;;;;;;;0.83;0.20;;;15.60;99.90;;;15.49;51.15;99434.75;6125366;22;97591;-47
2023/04/12 08:31:44;;;;;;;0.30;0.20;;;15.40;99.90;;;15.42;53.98;99433.50;6130967;22;97345;-45
2023/04/12 08:34:10;;;;;;;0.10;0.10;;;15.30;99.90;;;15.48;50.71;99422.44;6125953;22;97369;-51
2023/04/12 08:36:36;;;;;;;0.53;0.20;;;15.40;99.90;;;15.56;50.99;99424.50;6124546;22;117106;-45
2023/04/12 08:39:02;;;;;;;0.40;0.30;;;15.50;99.90;;;15.65;50.44;99411.41;6118141;22;97766;-49
2023/04/12 08:41:28;;;;;;;0.00;0.00;;;15.70;99.90;;;15.63;52.97;99417.81;6125192;22;97608;-46
2023/04/12 08:43:54;;;;;;;0.40;0.10;;;15.70;99.90;;;15.65;52.89;99424.69;6125764;22;97464;-47
2023/04/12 08:46:21;;;;;;;0.30;0.10;;;15.70;99.90;;;15.63;50.08;99416.00;6119480;22;97410;-49
2023/04/12 08:48:55;;;;;;;0.27;0.20;;;15.70;99.90;;;15.70;50.16;99416.34;6123284;22;97325;-46
2023/04/12 08:51:21;;;;;;;0.10;0.10;;;15.80;99.90;;;15.80;50.34;99421.81;6122136;22;97364;-50
2023/04/12 08:53:47;;;;;;;0.93;0.20;;;15.90;99.90;;;15.86;51.90;99424.00;6100105;22;97135;-45
2023/04/12 08:56:15;;;;;;;0.10;0.10;;;16.00;99.90;;;15.86;50.47;99421.34;6070291;22;102283;-49
2023/04/12 08:58:45;;;;;;;0.40;0.17;;;15.90;99.90;;;15.81;50.47;99423.53;6077373;22;97512;-49
2023/04/12 09:01:15;;;;;;;0.10;0.10;;;15.80;99.90;;;15.81;52.39;99408.41;6096233;22;97589;-46
2023/04/12 09:03:42;;;;;;;0.40;0.30;;;15.80;99.90;;;15.68;55.80;99418.28;6102434;22;97317;-45
2023/04/12 09:06:09;;;;;;;0.20;0.17;;;15.70;99.90;;;15.60;55.03;99418.00;6097429;22;98413;-45
2023/04/12 09:08:35;;;;;;;0.10;0.10;;;15.50;99.90;;;15.41;52.67;99413.22;6076767;22;98709;-47
2023/04/12 09:11:01;;;;;;;0.37;0.20;;;15.20;99.90;;;15.47;50.71;99394.13;6104514;22;97559;-52
2023/04/12 09:13:36;;;;;;;0.97;0.40;;;15.40;99.90;;;15.60;52.43;99405.56;6077801;22;97273;-52
2023/04/12 09:16:02;;;;;;;0.90;0.30;;;15.60;99.90;;;15.54;57.19;99406.00;6100108;22;97715;-50
2023/04/12 09:18:28;;;;;;;0.80;0.17;;;15.50;99.90;;;15.51;50.82;99400.94;6104207;22;98378;-48
2023/04/12 09:21:08;;;;;;;0.70;0.20;;;15.50;99.90;;;15.57;54.46;99395.13;6072468;22;110779;-48
2023/04/12 09:23:37;;;;;;;0.20;0.20;;;15.50;99.90;;;15.60;51.36;99394.09;6075853;22;98330;-49
2023/04/12 09:26:03;;;;;;;0.30;0.10;;;15.60;99.90;;;15.60;51.31;99394.94;6095137;22;98475;-48
2023/04/12 09:28:29;;;;;;;0.20;0.10;;;15.60;99.90;;;15.63;51.07;99402.69;6098783;22;98750;-46
2023/04/12 09:30:58;;;;;;;0.50;0.20;;;15.60;99.90;;;15.66;50.07;99394.47;6098083;22;101178;-48
2023/04/12 09:33:38;;;;;;;0.10;0.10;;;15.60;99.90;;;15.76;50.41;99395.44;6092924;22;97739;-49
2023/04/12 09:36:12;;;;;;;0.50;0.20;;;15.80;99.90;;;15.79;50.03;99394.41;6094337;22;105200;-46
2023/04/12 09:38:38;;;;;;;0.27;0.27;;;15.80;99.90;;;15.77;56.87;99389.19;6094602;22;98655;-46
2023/04/12 09:41:24;;;;;;;0.20;0.20;;;15.80;99.90;;;15.65;57.96;99392.78;6106836;22;97573;-45
2023/04/12 09:43:50;;;;;;;0.37;0.10;;;15.60;99.90;;;15.67;50.75;99387.34;6093287;22;97676;-49
2023/04/12 09:46:16;;;;;;;0.33;0.20;;;15.60;99.90;;;15.60;58.79;99379.00;6093090;22;98226;-47
2023/04/12 09:48:50;;;;;;;0.73;0.30;;;15.50;99.90;;;15.58;51.03;99380.88;6089925;22;114017;-49
2023/04/12 09:51:32;;;;;;;1.33;0.20;;;15.40;99.90;;;15.53;58.72;99383.06;6088931;22;97880;-45
2023/04/12 09:54:05;;;;;;;0.20;0.13;;;15.50;99.90;;;15.55;55.83;99394.41;6087143;22;97369;-47
2023/04/12 09:56:34;;;;;;;0.20;0.17;;;15.50;99.90;;;15.58;50.50;99378.22;6087083;22;100833;-47
2023/04/12 09:59:03;;;;;;;0.20;0.20;;;15.50;99.90;;;15.70;56.56;99384.47;6066812;22;99265;-51
2023/04/12 10:01:40;;;;;;;0.77;0.10;;;15.70;99.90;;;15.65;54.39;99387.47;6061208;22;97920;-49
2023/04/12 10:04:06;;;;;;;0.20;0.20;;;15.60;99.90;;;15.70;50.28;99374.66;6088897;22;98205;-47
2023/04/12 10:06:33;;;;;;;1.37;0.20;;;15.70;99.90;;;15.80;57.61;99387.25;6096966;22;97621;-45
2023/04/12 10:09:03;;;;;;;1.80;0.10;;;15.80;99.90;;;15.87;49.94;99364.53;6099525;22;98100;-46
2023/04/12 10:11:29;;;;;;;0.20;0.17;;;15.90;99.90;;;15.98;55.07;99372.53;6093568;22;96854;-50
2023/04/12 10:13:58;;;;;;;0.33;0.10;;;16.00;99.90;;;15.97;49.98;99362.88;6064396;22;97655;-46
2023/04/12 10:16:26;;;;;;;0.53;0.20;;;16.10;99.90;;;16.08;56.07;99357.56;6092440;22;108650;-45
2023/04/12 10:18:53;;;;;;;0.23;0.10;;;16.10;99.90;;;16.04;59.22;99350.75;6044405;22;99406;-45